Time;durP1;ratioP1;P1;durP2;ratioP2;P2;SDS_P1;SDS_P2;PMS_P1;PMS_P2;Temp;Humidity;BMP_temperature;BMP_pressure;BME280_temperature;BME280_humidity;BME280_pressure;Samples;Min_cycle;Max_cycle;Signal;HPM_P1;HPM_P2
2023/01/18 00:01:30;;;;;;;11.33;6.77;;;;;;;;;;5059821;28;20223;-77
2023/01/18 00:03:55;;;;;;;11.13;6.73;;;;;;;;;;5114587;22;20676;-73
2023/01/18 00:06:20;;;;;;;10.23;6.17;;;;;;;;;;5098612;28;20178;-73
2023/01/18 00:08:46;;;;;;;12.47;6.17;;;;;;;;;;5079583;28;20802;-72
2023/01/18 00:11:14;;;;;;;9.70;6.80;;;;;;;;;;5095680;28;20205;-72
2023/01/18 00:13:39;;;;;;;9.50;7.03;;;;;;;;;;5094316;28;20747;-72
2023/01/18 00:16:06;;;;;;;11.73;8.20;;;;;;;;;;5105973;28;20203;-72
2023/01/18 00:18:34;;;;;;;11.30;7.30;;;;;;;;;;5108935;28;20545;-72
2023/01/18 00:21:00;;;;;;;9.00;6.77;;;;;;;;;;5101756;28;20180;-72
2023/01/18 00:23:25;;;;;;;9.37;6.30;;;;;;;;;;5101352;28;20265;-72
2023/01/18 00:25:51;;;;;;;11.07;6.43;;;;;;;;;;5102229;28;20176;-74
2023/01/18 00:28:20;;;;;;;8.17;5.90;;;;;;;;;;5098494;28;20183;-73
2023/01/18 00:30:45;;;;;;;11.80;6.30;;;;;;;;;;5104595;28;20213;-72
2023/01/18 00:33:11;;;;;;;8.47;5.70;;;;;;;;;;5095152;28;20219;-73
2023/01/18 00:35:36;;;;;;;11.63;6.37;;;;;;;;;;5099152;28;20187;-73
2023/01/18 00:38:01;;;;;;;10.80;6.53;;;;;;;;;;5094537;28;20191;-75
2023/01/18 00:40:29;;;;;;;8.90;5.67;;;;;;;;;;5076354;28;20173;-72
2023/01/18 00:45:39;;;;;;;9.30;5.33;;;;;;;;;;5101404;28;20225;-73
2023/01/18 00:48:05;;;;;;;7.67;5.60;;;;;;;;;;5097406;28;22054;-73
2023/01/18 00:50:30;;;;;;;8.23;5.87;;;;;;;;;;5098179;28;20697;-73
2023/01/18 00:52:58;;;;;;;9.77;5.97;;;;;;;;;;5098906;28;20199;-73
2023/01/18 00:55:24;;;;;;;10.37;5.57;;;;;;;;;;5106378;28;20243;-73
2023/01/18 00:57:49;;;;;;;9.10;6.60;;;;;;;;;;5075680;28;20173;-73
2023/01/18 01:00:15;;;;;;;8.90;6.00;;;;;;;;;;5087181;28;20184;-72
2023/01/18 01:02:41;;;;;;;8.33;5.83;;;;;;;;;;5098043;28;20219;-72
2023/01/18 01:08:00;;;;;;;9.60;6.27;;;;;;;;;;5109259;28;20229;-74
2023/01/18 01:10:26;;;;;;;8.63;5.27;;;;;;;;;;5081281;28;20805;-74
2023/01/18 01:26:31;;;;;;;10.63;6.00;;;;;;;;;;5097178;28;20174;-72
2023/01/18 01:28:56;;;;;;;9.60;5.73;;;;;;;;;;5103028;28;20168;-74
2023/01/18 01:31:21;;;;;;;9.47;5.40;;;;;;;;;;5082808;28;20169;-72
2023/01/18 01:33:50;;;;;;;7.37;5.23;;;;;;;;;;5076039;28;20692;-72
2023/01/18 01:36:18;;;;;;;11.17;5.53;;;;;;;;;;5096876;28;20191;-72
2023/01/18 01:38:43;;;;;;;8.53;5.43;;;;;;;;;;5100278;28;20179;-72
2023/01/18 01:41:16;;;;;;;8.53;5.17;;;;;;;;;;5092403;28;20172;-73
2023/01/18 01:43:43;;;;;;;8.57;5.73;;;;;;;;;;5092480;28;20208;-73
2023/01/18 01:46:29;;;;;;;9.47;5.77;;;;;;;;;;5102891;28;20556;-72
2023/01/18 01:49:01;;;;;;;7.00;5.20;;;;;;;;;;5083170;28;20184;-73
2023/01/18 01:51:26;;;;;;;10.40;6.07;;;;;;;;;;5108037;28;20448;-73
2023/01/18 01:53:52;;;;;;;7.47;5.07;;;;;;;;;;5107529;28;20656;-72
2023/01/18 01:56:18;;;;;;;9.43;5.23;;;;;;;;;;5111646;28;20182;-73
2023/01/18 01:58:44;;;;;;;8.83;5.50;;;;;;;;;;5108045;28;20190;-72
2023/01/18 02:01:09;;;;;;;9.77;5.73;;;;;;;;;;5101100;28;20179;-72
2023/01/18 02:03:37;;;;;;;6.77;5.00;;;;;;;;;;5109571;28;20215;-73
2023/01/18 02:06:08;;;;;;;8.07;5.57;;;;;;;;;;5091686;28;20172;-72
2023/01/18 02:08:34;;;;;;;10.17;5.17;;;;;;;;;;5106263;28;20183;-74
2023/01/18 02:10:59;;;;;;;7.83;5.20;;;;;;;;;;5109185;28;20176;-72
2023/01/18 02:13:24;;;;;;;7.10;4.37;;;;;;;;;;5106924;28;20290;-72
2023/01/18 02:15:56;;;;;;;6.97;5.03;;;;;;;;;;5108761;28;20171;-73
2023/01/18 02:18:23;;;;;;;8.10;5.93;;;;;;;;;;5109487;28;20179;-72
2023/01/18 02:20:54;;;;;;;9.37;5.40;;;;;;;;;;5094271;28;20551;-72
2023/01/18 02:23:25;;;;;;;6.83;5.07;;;;;;;;;;5090899;28;20723;-72
2023/01/18 02:25:57;;;;;;;7.67;5.13;;;;;;;;;;5095494;28;20180;-74
2023/01/18 02:28:36;;;;;;;6.83;4.67;;;;;;;;;;5092406;28;20262;-72
2023/01/18 02:31:01;;;;;;;9.23;5.10;;;;;;;;;;5078749;28;20280;-72
2023/01/18 02:33:45;;;;;;;6.83;4.97;;;;;;;;;;5096662;28;20679;-74
2023/01/18 02:36:16;;;;;;;7.00;4.87;;;;;;;;;;5093568;28;20226;-72
2023/01/18 02:38:43;;;;;;;6.70;5.07;;;;;;;;;;5088724;28;20180;-73
2023/01/18 02:41:14;;;;;;;7.80;4.53;;;;;;;;;;5091572;28;20203;-72
2023/01/18 02:46:34;;;;;;;6.93;4.93;;;;;;;;;;5095903;28;20220;-72
2023/01/18 02:49:04;;;;;;;6.57;4.73;;;;;;;;;;5095570;28;20182;-72
2023/01/18 02:51:29;;;;;;;9.93;5.80;;;;;;;;;;5093363;28;20180;-72
2023/01/18 02:53:56;;;;;;;11.40;6.13;;;;;;;;;;5091936;28;20203;-73
2023/01/18 02:56:26;;;;;;;9.83;6.27;;;;;;;;;;5076397;28;20218;-73
2023/01/18 02:58:56;;;;;;;8.13;5.67;;;;;;;;;;5081788;28;20176;-72
2023/01/18 03:01:26;;;;;;;7.07;5.57;;;;;;;;;;5091078;28;20188;-72
2023/01/18 03:03:53;;;;;;;9.53;6.97;;;;;;;;;;5096732;28;20290;-72
2023/01/18 03:06:19;;;;;;;9.40;6.30;;;;;;;;;;5095963;28;20172;-72
2023/01/18 03:08:50;;;;;;;8.57;6.40;;;;;;;;;;5098649;28;20552;-72
2023/01/18 03:11:20;;;;;;;10.23;6.53;;;;;;;;;;5097437;28;20515;-72
2023/01/18 03:13:49;;;;;;;11.13;6.83;;;;;;;;;;5097181;28;20244;-73
2023/01/18 03:16:21;;;;;;;9.80;7.67;;;;;;;;;;5097158;28;20184;-72
2023/01/18 03:19:01;;;;;;;11.77;7.47;;;;;;;;;;5098926;28;20198;-72
2023/01/18 03:21:40;;;;;;;10.33;6.50;;;;;;;;;;5094894;28;20237;-73
2023/01/18 03:24:07;;;;;;;11.90;6.90;;;;;;;;;;5092041;28;20221;-72
2023/01/18 03:26:35;;;;;;;10.23;6.43;;;;;;;;;;5099174;28;20403;-73
2023/01/18 03:34:48;;;;;;;11.67;7.67;;;;;;;;;;5098805;28;20282;-72
2023/01/18 03:37:15;;;;;;;10.93;7.50;;;;;;;;;;5077164;28;20594;-72
2023/01/18 03:39:45;;;;;;;9.63;6.57;;;;;;;;;;5096146;28;20187;-72
2023/01/18 03:42:19;;;;;;;12.07;7.77;;;;;;;;;;5097625;28;20204;-72
2023/01/18 03:44:58;;;;;;;9.07;6.37;;;;;;;;;;5079580;28;20173;-72
2023/01/18 03:47:23;;;;;;;9.37;7.17;;;;;;;;;;5079396;28;20736;-72
2023/01/18 03:49:49;;;;;;;10.87;7.37;;;;;;;;;;5100223;28;20254;-73
2023/01/18 03:52:14;;;;;;;12.53;6.93;;;;;;;;;;5099869;28;20195;-72
2023/01/18 03:54:51;;;;;;;11.53;7.53;;;;;;;;;;5094378;28;20250;-72
2023/01/18 03:57:19;;;;;;;11.00;7.50;;;;;;;;;;5107847;28;20182;-72
2023/01/18 03:59:45;;;;;;;10.53;7.50;;;;;;;;;;5112899;28;20171;-72
2023/01/18 04:02:10;;;;;;;9.80;7.10;;;;;;;;;;5103840;28;20210;-72
2023/01/18 04:04:36;;;;;;;10.93;7.17;;;;;;;;;;5108405;28;20170;-72
2023/01/18 04:07:01;;;;;;;11.67;6.50;;;;;;;;;;5110817;28;20191;-72
2023/01/18 04:09:26;;;;;;;10.70;6.97;;;;;;;;;;5095109;28;20194;-72
2023/01/18 04:11:52;;;;;;;11.60;6.83;;;;;;;;;;5112099;28;20168;-72
2023/01/18 04:14:17;;;;;;;13.50;6.77;;;;;;;;;;5110919;28;20196;-72
2023/01/18 04:16:42;;;;;;;13.00;6.90;;;;;;;;;;5090534;28;20192;-72
2023/01/18 04:19:07;;;;;;;12.13;7.57;;;;;;;;;;5112117;28;20663;-72
2023/01/18 04:21:33;;;;;;;8.83;6.23;;;;;;;;;;5108884;28;20174;-72
2023/01/18 04:23:58;;;;;;;9.33;6.30;;;;;;;;;;5113255;28;20268;-72
2023/01/18 04:26:24;;;;;;;13.27;5.80;;;;;;;;;;5112124;28;20179;-72
2023/01/18 04:28:49;;;;;;;12.07;6.87;;;;;;;;;;5092538;28;20552;-72
2023/01/18 04:31:14;;;;;;;9.43;6.87;;;;;;;;;;5091542;28;20456;-73
2023/01/18 04:33:39;;;;;;;10.60;6.73;;;;;;;;;;5093639;28;20203;-73
2023/01/18 04:36:05;;;;;;;7.53;6.13;;;;;;;;;;5092557;28;20183;-73
2023/01/18 04:38:30;;;;;;;10.20;6.10;;;;;;;;;;5113103;28;20261;-72
2023/01/18 04:40:55;;;;;;;9.47;6.50;;;;;;;;;;5111438;28;20182;-73
2023/01/18 04:43:20;;;;;;;11.97;6.37;;;;;;;;;;5092653;28;20690;-73
2023/01/18 04:45:53;;;;;;;8.90;5.80;;;;;;;;;;5111378;28;20590;-72
2023/01/18 04:48:18;;;;;;;11.00;6.63;;;;;;;;;;5094746;28;20316;-73
2023/01/18 04:50:45;;;;;;;9.03;6.17;;;;;;;;;;5110602;28;20266;-73
2023/01/18 04:53:10;;;;;;;10.53;6.77;;;;;;;;;;5109286;28;20199;-73
2023/01/18 04:55:35;;;;;;;12.30;6.57;;;;;;;;;;5112893;28;20176;-73
2023/01/18 04:58:01;;;;;;;12.50;6.33;;;;;;;;;;5092967;28;20244;-73
2023/01/18 05:00:26;;;;;;;8.97;5.53;;;;;;;;;;5093933;28;20831;-72
2023/01/18 05:02:51;;;;;;;11.67;7.00;;;;;;;;;;5104468;28;20211;-73
2023/01/18 05:05:16;;;;;;;10.03;5.83;;;;;;;;;;5112930;28;20172;-72
2023/01/18 05:07:41;;;;;;;10.10;6.50;;;;;;;;;;5111149;28;20182;-72
2023/01/18 05:10:07;;;;;;;12.80;7.10;;;;;;;;;;5111245;28;20180;-73
2023/01/18 05:12:32;;;;;;;8.80;6.33;;;;;;;;;;5111269;28;20282;-72
2023/01/18 05:14:57;;;;;;;9.90;5.73;;;;;;;;;;5112408;28;20168;-73
2023/01/18 05:17:26;;;;;;;8.27;5.40;;;;;;;;;;5090917;28;20240;-72
2023/01/18 05:19:53;;;;;;;9.53;6.47;;;;;;;;;;5093468;28;20179;-72
2023/01/18 05:22:18;;;;;;;10.73;7.30;;;;;;;;;;5112163;28;20231;-72
2023/01/18 05:24:43;;;;;;;11.83;6.40;;;;;;;;;;5112784;28;20207;-75
2023/01/18 05:27:08;;;;;;;10.50;7.00;;;;;;;;;;5111356;28;20176;-74
2023/01/18 05:29:33;;;;;;;11.07;6.33;;;;;;;;;;5112380;28;20252;-73
2023/01/18 05:31:59;;;;;;;10.47;7.13;;;;;;;;;;5112801;28;20187;-73
2023/01/18 05:34:24;;;;;;;13.00;7.47;;;;;;;;;;5111362;28;20167;-74
2023/01/18 05:36:49;;;;;;;12.63;7.07;;;;;;;;;;5111939;28;20244;-73
2023/01/18 05:39:14;;;;;;;10.87;7.13;;;;;;;;;;5111895;28;20167;-73
2023/01/18 05:41:39;;;;;;;13.00;7.10;;;;;;;;;;5107809;28;20171;-73
2023/01/18 05:44:05;;;;;;;12.73;7.57;;;;;;;;;;5112582;28;20290;-73
2023/01/18 05:46:30;;;;;;;11.43;7.43;;;;;;;;;;5104337;28;20264;-73
2023/01/18 05:48:58;;;;;;;14.97;7.80;;;;;;;;;;5111281;28;20194;-73
2023/01/18 05:51:24;;;;;;;13.97;7.67;;;;;;;;;;5113439;28;20176;-73
2023/01/18 05:53:49;;;;;;;13.70;7.37;;;;;;;;;;5113303;28;20614;-73
2023/01/18 05:56:14;;;;;;;12.43;8.07;;;;;;;;;;5113650;28;20189;-73
2023/01/18 05:58:40;;;;;;;10.17;7.27;;;;;;;;;;5112844;28;20588;-73
2023/01/18 06:01:07;;;;;;;9.60;6.57;;;;;;;;;;5112946;28;20167;-73
2023/01/18 06:03:32;;;;;;;10.07;6.57;;;;;;;;;;5108736;28;20241;-73
2023/01/18 06:05:58;;;;;;;13.37;7.80;;;;;;;;;;5113291;28;20541;-74
2023/01/18 06:08:23;;;;;;;9.23;6.47;;;;;;;;;;5111961;28;20167;-73
2023/01/18 06:10:55;;;;;;;15.07;7.40;;;;;;;;;;5093743;28;20168;-72
2023/01/18 06:13:21;;;;;;;13.97;7.57;;;;;;;;;;5111294;28;20195;-73
2023/01/18 06:15:46;;;;;;;13.73;7.87;;;;;;;;;;5108367;28;20671;-72
2023/01/18 06:18:12;;;;;;;13.13;6.90;;;;;;;;;;5108081;28;20184;-73
2023/01/18 06:20:37;;;;;;;10.67;7.20;;;;;;;;;;5084058;28;20202;-73
2023/01/18 06:23:02;;;;;;;14.40;8.27;;;;;;;;;;5094042;28;20214;-73
2023/01/18 06:25:27;;;;;;;11.77;7.43;;;;;;;;;;5111246;28;20263;-72
2023/01/18 06:27:52;;;;;;;13.17;7.73;;;;;;;;;;5110097;28;20186;-73
2023/01/18 06:30:18;;;;;;;11.00;7.87;;;;;;;;;;5093603;28;20266;-73
2023/01/18 06:32:43;;;;;;;13.00;7.03;;;;;;;;;;5093663;28;20211;-73
2023/01/18 06:35:08;;;;;;;14.13;7.17;;;;;;;;;;5110882;28;20176;-73
2023/01/18 06:37:34;;;;;;;13.63;6.70;;;;;;;;;;5092394;28;20187;-73
2023/01/18 06:39:59;;;;;;;13.87;7.83;;;;;;;;;;5109191;28;20175;-73
2023/01/18 06:42:24;;;;;;;10.43;7.20;;;;;;;;;;5101903;28;20298;-73
2023/01/18 06:44:49;;;;;;;11.60;6.97;;;;;;;;;;5107365;28;20380;-73
2023/01/18 06:47:18;;;;;;;14.07;6.57;;;;;;;;;;5111926;28;20182;-72
2023/01/18 06:49:43;;;;;;;10.03;6.47;;;;;;;;;;5107786;28;20179;-73
2023/01/18 06:52:09;;;;;;;12.03;6.80;;;;;;;;;;5112117;28;20172;-74
2023/01/18 06:54:34;;;;;;;11.33;7.03;;;;;;;;;;5108818;28;20262;-72
2023/01/18 06:56:59;;;;;;;10.57;6.93;;;;;;;;;;5109600;28;20167;-73
2023/01/18 06:59:27;;;;;;;9.50;6.67;;;;;;;;;;5111402;28;20246;-73
2023/01/18 07:01:53;;;;;;;14.53;7.73;;;;;;;;;;5089376;28;20172;-73
2023/01/18 07:04:18;;;;;;;12.00;7.37;;;;;;;;;;5109418;28;20210;-73
2023/01/18 07:06:43;;;;;;;11.80;6.80;;;;;;;;;;5111000;28;20547;-74
2023/01/18 07:09:09;;;;;;;11.13;7.03;;;;;;;;;;5092121;28;20179;-73
2023/01/18 07:11:35;;;;;;;9.20;6.37;;;;;;;;;;5110786;28;20191;-72
2023/01/18 07:14:01;;;;;;;11.77;7.57;;;;;;;;;;5110277;28;20199;-72
2023/01/18 07:16:27;;;;;;;12.97;7.27;;;;;;;;;;5109584;28;20653;-73
2023/01/18 07:18:52;;;;;;;14.63;8.17;;;;;;;;;;5087581;28;20188;-73
2023/01/18 07:21:28;;;;;;;10.00;6.40;;;;;;;;;;5103949;28;20184;-73
2023/01/18 07:23:53;;;;;;;12.13;6.63;;;;;;;;;;5101931;28;20214;-72
2023/01/18 07:26:18;;;;;;;9.53;6.07;;;;;;;;;;5088841;28;20244;-72
2023/01/18 07:28:44;;;;;;;12.13;7.30;;;;;;;;;;5097560;28;20172;-72
2023/01/18 07:31:09;;;;;;;10.57;6.40;;;;;;;;;;5074637;28;20200;-72
2023/01/18 07:33:35;;;;;;;8.93;5.67;;;;;;;;;;5095824;28;20259;-73
2023/01/18 07:36:01;;;;;;;7.80;6.17;;;;;;;;;;5100780;28;20270;-73
2023/01/18 07:38:26;;;;;;;12.93;6.53;;;;;;;;;;5088354;28;20172;-73
2023/01/18 07:40:57;;;;;;;12.47;6.67;;;;;;;;;;5102313;28;20309;-73
2023/01/18 07:43:23;;;;;;;10.43;6.50;;;;;;;;;;5098952;28;20200;-72
2023/01/18 07:45:51;;;;;;;11.07;7.30;;;;;;;;;;5104046;28;20244;-72
2023/01/18 07:48:16;;;;;;;14.47;7.20;;;;;;;;;;5106623;28;20304;-73
2023/01/18 07:50:42;;;;;;;10.10;6.53;;;;;;;;;;5090618;28;20278;-73
2023/01/18 07:53:08;;;;;;;13.90;7.87;;;;;;;;;;5094699;28;20531;-73
2023/01/18 07:55:33;;;;;;;8.93;6.43;;;;;;;;;;5095301;28;20570;-73
2023/01/18 07:57:59;;;;;;;11.97;7.10;;;;;;;;;;5111341;28;20168;-73
2023/01/18 08:00:25;;;;;;;12.53;7.60;;;;;;;;;;5111527;28;20207;-73
2023/01/18 08:02:50;;;;;;;14.33;7.73;;;;;;;;;;5073917;28;1088332;-73
2023/01/18 08:05:18;;;;;;;12.60;7.27;;;;;;;;;;5093394;28;20206;-73
2023/01/18 08:07:45;;;;;;;12.23;7.30;;;;;;;;;;5112191;28;20321;-73
2023/01/18 08:10:10;;;;;;;14.33;7.50;;;;;;;;;;5113773;28;20679;-72
2023/01/18 08:12:35;;;;;;;16.37;7.80;;;;;;;;;;5115078;28;20180;-72
2023/01/18 08:15:00;;;;;;;10.47;7.17;;;;;;;;;;5113134;28;20175;-73
2023/01/18 08:17:28;;;;;;;11.73;8.10;;;;;;;;;;5107239;28;20179;-74
2023/01/18 08:19:53;;;;;;;11.83;7.80;;;;;;;;;;5107235;28;20775;-72
2023/01/18 08:22:18;;;;;;;12.67;7.83;;;;;;;;;;5096779;28;20252;-72
2023/01/18 08:24:44;;;;;;;9.80;6.73;;;;;;;;;;5100043;28;20273;-72
2023/01/18 08:27:09;;;;;;;14.67;8.83;;;;;;;;;;5098871;28;20167;-72
2023/01/18 08:29:35;;;;;;;16.23;7.67;;;;;;;;;;5098435;28;20221;-73
2023/01/18 08:32:01;;;;;;;12.03;8.33;;;;;;;;;;5101288;28;20752;-72
2023/01/18 08:34:26;;;;;;;12.10;6.67;;;;;;;;;;5082918;28;20255;-72
2023/01/18 08:36:52;;;;;;;12.03;7.97;;;;;;;;;;5100254;28;20164;-73
2023/01/18 08:39:17;;;;;;;14.47;7.87;;;;;;;;;;5100336;28;20195;-72
2023/01/18 08:41:42;;;;;;;11.33;7.80;;;;;;;;;;5102388;28;20175;-72
2023/01/18 08:44:07;;;;;;;11.03;8.03;;;;;;;;;;5099775;28;20211;-73
2023/01/18 08:46:34;;;;;;;14.67;9.50;;;;;;;;;;5099009;28;20172;-72
2023/01/18 08:48:59;;;;;;;12.63;7.70;;;;;;;;;;5100184;28;20191;-72
2023/01/18 08:51:24;;;;;;;15.53;8.07;;;;;;;;;;5102141;28;20188;-72
2023/01/18 08:53:57;;;;;;;10.47;7.00;;;;;;;;;;5085500;28;20211;-72
2023/01/18 08:56:23;;;;;;;14.73;8.73;;;;;;;;;;5095836;28;20231;-72
2023/01/18 08:58:50;;;;;;;14.43;7.83;;;;;;;;;;5100825;28;20180;-72
2023/01/18 09:01:15;;;;;;;11.23;8.30;;;;;;;;;;5101204;28;20179;-73
2023/01/18 09:03:41;;;;;;;15.33;9.10;;;;;;;;;;5085190;28;20727;-72
2023/01/18 09:06:08;;;;;;;13.20;7.53;;;;;;;;;;5082151;28;20208;-72
2023/01/18 09:08:33;;;;;;;11.77;7.80;;;;;;;;;;5100818;28;20183;-71
2023/01/18 09:11:02;;;;;;;14.27;8.77;;;;;;;;;;5099497;28;20184;-72
2023/01/18 09:13:27;;;;;;;10.43;7.70;;;;;;;;;;5080389;28;20702;-72
2023/01/18 09:15:59;;;;;;;12.90;8.63;;;;;;;;;;5098775;28;20279;-71
2023/01/18 09:18:25;;;;;;;13.63;9.23;;;;;;;;;;5083001;28;20179;-72
2023/01/18 09:20:53;;;;;;;13.60;8.53;;;;;;;;;;5097942;28;20195;-72
2023/01/18 09:23:18;;;;;;;11.10;8.27;;;;;;;;;;5082737;28;21182;-73
2023/01/18 09:25:44;;;;;;;12.57;9.37;;;;;;;;;;5098697;28;20203;-72
2023/01/18 09:28:09;;;;;;;14.67;10.17;;;;;;;;;;5098402;28;20183;-73
2023/01/18 09:30:34;;;;;;;15.50;8.57;;;;;;;;;;5082620;28;20274;-73
2023/01/18 09:33:00;;;;;;;13.93;8.73;;;;;;;;;;5084391;28;20215;-73
2023/01/18 09:35:25;;;;;;;14.33;9.80;;;;;;;;;;5098677;28;20184;-73
2023/01/18 09:37:50;;;;;;;13.20;9.17;;;;;;;;;;5099478;28;20242;-73
2023/01/18 09:40:17;;;;;;;17.23;9.67;;;;;;;;;;5098651;28;20686;-73
2023/01/18 09:42:43;;;;;;;17.97;9.17;;;;;;;;;;5096823;28;20556;-71
2023/01/18 09:45:15;;;;;;;14.17;8.90;;;;;;;;;;5101344;28;20179;-73
2023/01/18 09:47:46;;;;;;;13.83;8.90;;;;;;;;;;5098581;28;20187;-71
2023/01/18 09:50:16;;;;;;;12.87;7.10;;;;;;;;;;5077338;28;20238;-71
2023/01/18 09:53:00;;;;;;;9.40;7.63;;;;;;;;;;5082445;28;20199;-72
2023/01/18 09:55:48;;;;;;;11.97;7.17;;;;;;;;;;5098803;28;20646;-72
2023/01/18 09:58:33;;;;;;;11.53;6.07;;;;;;;;;;5087950;28;20196;-72
2023/01/18 10:01:11;;;;;;;9.33;5.90;;;;;;;;;;5096670;28;20184;-73
2023/01/18 10:03:43;;;;;;;11.37;6.33;;;;;;;;;;5095097;28;20272;-72
2023/01/18 10:06:14;;;;;;;9.63;6.97;;;;;;;;;;5081837;28;20187;-71
2023/01/18 10:09:05;;;;;;;9.30;6.10;;;;;;;;;;5099663;28;20271;-72
2023/01/18 10:11:43;;;;;;;8.53;6.07;;;;;;;;;;5094589;28;20195;-72
2023/01/18 10:14:12;;;;;;;8.33;6.30;;;;;;;;;;5084170;28;20203;-72
2023/01/18 10:16:37;;;;;;;9.87;6.30;;;;;;;;;;5097916;28;20184;-73
2023/01/18 10:19:02;;;;;;;8.97;5.67;;;;;;;;;;5097456;28;20657;-72
2023/01/18 10:21:36;;;;;;;11.67;6.63;;;;;;;;;;5095852;28;20576;-73
2023/01/18 10:24:20;;;;;;;9.93;6.70;;;;;;;;;;5100371;28;20207;-73
2023/01/18 10:26:46;;;;;;;7.80;5.60;;;;;;;;;;5098762;28;20176;-74
2023/01/18 10:29:14;;;;;;;8.97;5.47;;;;;;;;;;5097720;28;20184;-72
2023/01/18 10:31:49;;;;;;;9.83;6.30;;;;;;;;;;5100658;28;20190;-73
2023/01/18 10:34:21;;;;;;;10.90;6.20;;;;;;;;;;5099286;28;21626;-72
2023/01/18 10:36:48;;;;;;;7.23;5.57;;;;;;;;;;5080239;28;20187;-72
2023/01/18 10:39:33;;;;;;;7.70;5.40;;;;;;;;;;5080997;28;20522;-72
2023/01/18 10:42:00;;;;;;;9.80;5.83;;;;;;;;;;5104235;28;20188;-73
2023/01/18 10:44:26;;;;;;;9.23;6.83;;;;;;;;;;5099541;28;20203;-73
2023/01/18 10:47:00;;;;;;;8.93;5.10;;;;;;;;;;5099547;28;20193;-73
2023/01/18 10:49:39;;;;;;;8.43;6.03;;;;;;;;;;5096428;28;20618;-72
2023/01/18 10:52:25;;;;;;;7.80;6.10;;;;;;;;;;5095713;28;20188;-73
2023/01/18 10:55:00;;;;;;;8.77;6.17;;;;;;;;;;5075410;28;20683;-72
2023/01/18 10:57:35;;;;;;;7.93;5.47;;;;;;;;;;5092699;28;20644;-73
2023/01/18 11:00:01;;;;;;;9.57;5.80;;;;;;;;;;5094108;28;20176;-73
2023/01/18 11:02:31;;;;;;;8.47;6.00;;;;;;;;;;5092119;28;20558;-73
2023/01/18 11:05:20;;;;;;;8.37;5.90;;;;;;;;;;5079404;28;20267;-74
2023/01/18 11:07:45;;;;;;;6.73;4.90;;;;;;;;;;5082272;28;20192;-73
2023/01/18 11:10:24;;;;;;;8.63;5.53;;;;;;;;;;5093043;28;20180;-73
2023/01/18 11:12:51;;;;;;;7.40;5.50;;;;;;;;;;5094459;28;20268;-73
2023/01/18 11:15:16;;;;;;;8.43;5.70;;;;;;;;;;5093761;28;20199;-74
2023/01/18 11:17:42;;;;;;;9.00;5.87;;;;;;;;;;5092788;28;20183;-72
2023/01/18 11:20:17;;;;;;;7.97;6.00;;;;;;;;;;5095356;28;20196;-73
2023/01/18 11:22:52;;;;;;;9.67;5.60;;;;;;;;;;5095672;28;20207;-73
2023/01/18 11:25:17;;;;;;;8.77;6.00;;;;;;;;;;5079634;28;20253;-73
2023/01/18 11:27:43;;;;;;;7.63;5.40;;;;;;;;;;5097825;28;20740;-72
2023/01/18 11:30:37;;;;;;;7.80;5.60;;;;;;;;;;5097138;27;20718;-73
2023/01/18 11:33:03;;;;;;;9.67;5.87;;;;;;;;;;5081106;28;20211;-73
2023/01/18 11:35:32;;;;;;;8.93;5.80;;;;;;;;;;5096461;28;20353;-73
2023/01/18 11:37:58;;;;;;;10.93;5.57;;;;;;;;;;5096936;28;20194;-73
2023/01/18 11:40:26;;;;;;;11.70;7.30;;;;;;;;;;5077649;28;20558;-73
2023/01/18 11:42:57;;;;;;;11.30;5.83;;;;;;;;;;5094084;28;20287;-73
2023/01/18 11:45:27;;;;;;;8.17;5.30;;;;;;;;;;5081638;28;20204;-73
2023/01/18 11:48:04;;;;;;;12.17;5.93;;;;;;;;;;5095590;28;20690;-72
2023/01/18 11:50:34;;;;;;;7.77;5.53;;;;;;;;;;5101491;28;20172;-73
2023/01/18 11:53:03;;;;;;;8.63;5.27;;;;;;;;;;5097641;28;20423;-73
2023/01/18 11:55:37;;;;;;;12.90;5.80;;;;;;;;;;5093182;28;20177;-73
2023/01/18 11:58:05;;;;;;;8.10;5.20;;;;;;;;;;5094249;28;20204;-73
2023/01/18 12:00:35;;;;;;;7.30;5.07;;;;;;;;;;5097086;28;20721;-73
2023/01/18 12:03:00;;;;;;;9.03;5.53;;;;;;;;;;5093635;28;20238;-72
2023/01/18 12:05:44;;;;;;;7.40;5.27;;;;;;;;;;5096714;28;20176;-73
2023/01/18 12:08:22;;;;;;;10.53;5.00;;;;;;;;;;5098683;28;20184;-73
2023/01/18 12:11:05;;;;;;;7.60;5.63;;;;;;;;;;5096072;28;20183;-73
2023/01/18 12:13:54;;;;;;;5.50;4.70;;;;;;;;;;5096301;28;20287;-73
2023/01/18 12:16:25;;;;;;;7.40;4.87;;;;;;;;;;5062095;28;20219;-73
2023/01/18 12:18:50;;;;;;;6.90;4.57;;;;;;;;;;5097741;28;20187;-72
2023/01/18 12:21:24;;;;;;;5.27;4.07;;;;;;;;;;5096544;28;20211;-73
2023/01/18 12:23:55;;;;;;;5.77;3.70;;;;;;;;;;5094887;28;20215;-73
2023/01/18 12:26:36;;;;;;;6.13;3.00;;;;;;;;;;5078290;28;20274;-73
2023/01/18 12:29:04;;;;;;;9.13;3.73;;;;;;;;;;5076614;28;20271;-72
2023/01/18 12:31:29;;;;;;;5.20;3.17;;;;;;;;;;5094210;28;20191;-73
2023/01/18 12:34:01;;;;;;;4.03;2.70;;;;;;;;;;5080689;28;20203;-73
2023/01/18 12:36:41;;;;;;;4.37;2.83;;;;;;;;;;5098149;28;20224;-73
2023/01/18 12:39:26;;;;;;;5.50;2.70;;;;;;;;;;5094740;28;20194;-73
2023/01/18 12:41:58;;;;;;;4.07;2.50;;;;;;;;;;5072578;28;20188;-73
2023/01/18 12:44:45;;;;;;;2.93;2.13;;;;;;;;;;5098540;28;20728;-73
2023/01/18 12:47:13;;;;;;;3.97;2.60;;;;;;;;;;5081212;28;20200;-72
2023/01/18 12:49:43;;;;;;;3.53;2.60;;;;;;;;;;5099370;28;20268;-73
2023/01/18 12:52:10;;;;;;;2.87;1.90;;;;;;;;;;5078046;28;20187;-73
2023/01/18 12:54:38;;;;;;;2.77;2.17;;;;;;;;;;5094873;28;20179;-73
2023/01/18 12:57:03;;;;;;;4.77;2.40;;;;;;;;;;5094165;28;20186;-72
2023/01/18 12:59:39;;;;;;;4.20;1.80;;;;;;;;;;5093543;28;20239;-72
2023/01/18 13:02:22;;;;;;;4.27;2.13;;;;;;;;;;5095446;28;20193;-72
2023/01/18 13:04:55;;;;;;;3.27;2.03;;;;;;;;;;5099389;28;20192;-73
2023/01/18 13:07:24;;;;;;;4.27;1.87;;;;;;;;;;5094232;28;20180;-73
2023/01/18 13:09:49;;;;;;;3.17;2.03;;;;;;;;;;5098302;28;20194;-73
2023/01/18 13:12:15;;;;;;;4.50;1.87;;;;;;;;;;5093857;28;20195;-73
2023/01/18 13:14:52;;;;;;;3.70;2.20;;;;;;;;;;5079031;28;20652;-74
2023/01/18 13:17:24;;;;;;;5.10;2.20;;;;;;;;;;5082532;28;20203;-73
2023/01/18 13:19:56;;;;;;;4.67;2.10;;;;;;;;;;5095600;28;20179;-73
2023/01/18 13:22:38;;;;;;;7.07;2.10;;;;;;;;;;5082175;28;20196;-73
2023/01/18 13:25:22;;;;;;;4.70;2.23;;;;;;;;;;5094989;28;20168;-74
2023/01/18 13:27:57;;;;;;;4.47;1.87;;;;;;;;;;5092543;28;20177;-74
2023/01/18 13:30:23;;;;;;;4.63;2.57;;;;;;;;;;5094832;28;20197;-70
2023/01/18 13:32:49;;;;;;;3.30;2.00;;;;;;;;;;5094002;28;20680;-71
2023/01/18 13:35:19;;;;;;;3.03;2.00;;;;;;;;;;5099185;28;20186;-72
2023/01/18 13:37:49;;;;;;;3.40;2.00;;;;;;;;;;5093455;28;20196;-72
2023/01/18 13:40:26;;;;;;;2.00;1.70;;;;;;;;;;5072877;28;20842;-71
2023/01/18 13:42:51;;;;;;;5.60;1.90;;;;;;;;;;5077511;28;20589;-72
2023/01/18 13:45:21;;;;;;;2.47;1.30;;;;;;;;;;5099428;28;20174;-71
2023/01/18 13:47:48;;;;;;;1.77;1.30;;;;;;;;;;5092645;27;20271;-73
2023/01/18 13:50:35;;;;;;;4.47;1.43;;;;;;;;;;5097174;28;21247;-71
2023/01/18 13:53:12;;;;;;;2.13;1.13;;;;;;;;;;5079590;28;20916;-72
2023/01/18 13:55:39;;;;;;;4.70;1.50;;;;;;;;;;5097098;28;20183;-71
2023/01/18 13:58:15;;;;;;;1.43;1.20;;;;;;;;;;5095758;28;20237;-71
2023/01/18 14:00:45;;;;;;;1.50;1.40;;;;;;;;;;5093520;28;20171;-72
2023/01/18 14:03:14;;;;;;;3.53;1.23;;;;;;;;;;5098167;28;20234;-72
2023/01/18 14:05:44;;;;;;;2.50;1.30;;;;;;;;;;5094552;28;20210;-73
2023/01/18 14:08:16;;;;;;;3.60;1.70;;;;;;;;;;5077911;28;20543;-73
2023/01/18 14:10:45;;;;;;;2.20;1.90;;;;;;;;;;5092109;28;20187;-72
2023/01/18 14:13:15;;;;;;;3.50;2.30;;;;;;;;;;5078171;28;20208;-72
2023/01/18 14:15:40;;;;;;;3.90;2.63;;;;;;;;;;5070439;28;20207;-72
2023/01/18 14:18:25;;;;;;;5.97;2.07;;;;;;;;;;5091419;28;20196;-72
2023/01/18 14:21:03;;;;;;;2.67;1.87;;;;;;;;;;5092167;28;20191;-73
2023/01/18 14:23:31;;;;;;;7.30;2.33;;;;;;;;;;5093214;28;20195;-72
2023/01/18 14:25:56;;;;;;;4.77;2.30;;;;;;;;;;5093677;28;20165;-72
2023/01/18 14:28:25;;;;;;;4.93;2.67;;;;;;;;;;5091713;28;20180;-73
2023/01/18 14:30:53;;;;;;;3.40;1.90;;;;;;;;;;5094385;28;20183;-72
2023/01/18 14:33:18;;;;;;;2.60;2.30;;;;;;;;;;5094958;28;20563;-72
2023/01/18 14:35:51;;;;;;;2.73;2.30;;;;;;;;;;5094578;28;20183;-72
2023/01/18 14:38:16;;;;;;;3.47;2.60;;;;;;;;;;5076812;28;20260;-72
2023/01/18 14:40:42;;;;;;;2.43;2.17;;;;;;;;;;5072428;28;20207;-72
2023/01/18 14:43:13;;;;;;;3.83;2.17;;;;;;;;;;5097451;28;20196;-73
2023/01/18 14:45:44;;;;;;;3.13;2.53;;;;;;;;;;5094123;28;20181;-73
2023/01/18 14:48:11;;;;;;;4.17;2.40;;;;;;;;;;5096832;28;20649;-72
2023/01/18 14:50:39;;;;;;;3.37;2.37;;;;;;;;;;5093392;28;20187;-72
2023/01/18 14:53:06;;;;;;;5.07;1.90;;;;;;;;;;5093744;28;20206;-72
2023/01/18 14:55:32;;;;;;;3.63;2.20;;;;;;;;;;5075863;28;20179;-72
2023/01/18 14:58:01;;;;;;;2.10;1.50;;;;;;;;;;5093384;28;20847;-72
2023/01/18 15:00:27;;;;;;;1.93;1.70;;;;;;;;;;5072616;28;20245;-72
2023/01/18 15:02:52;;;;;;;3.83;1.97;;;;;;;;;;5096310;28;20703;-72
2023/01/18 15:05:18;;;;;;;5.23;1.93;;;;;;;;;;5093552;28;20664;-72
2023/01/18 15:07:45;;;;;;;4.87;1.90;;;;;;;;;;5092672;28;20725;-73
2023/01/18 15:10:12;;;;;;;2.90;2.00;;;;;;;;;;5076688;28;20179;-73
2023/01/18 15:12:38;;;;;;;2.30;2.10;;;;;;;;;;5096284;28;20195;-72